Time;durP1;ratioP1;P1;durP2;ratioP2;P2;SDS_P1;SDS_P2;PMS_P1;PMS_P2;Temp;Humidity;BMP_temperature;BMP_pressure;BME280_temperature;BME280_humidity;BME280_pressure;Samples;Min_cycle;Max_cycle;Signal;HPM_P1;HPM_P2
2022/02/27 00:03:01;;;;;;;5.07;3.15;;;;;;;;;;6307831;28;20054;-66
2022/02/27 00:06:02;;;;;;;7.45;3.45;;;;;;;;;;6302578;28;20095;-66
2022/02/27 00:09:04;;;;;;;5.82;3.30;;;;;;;;;;6309623;28;20638;-66
2022/02/27 00:12:08;;;;;;;5.93;3.35;;;;;;;;;;6305960;28;20123;-66
2022/02/27 00:15:09;;;;;;;6.25;3.17;;;;;;;;;;6306888;28;20070;-66
2022/02/27 00:18:11;;;;;;;4.53;3.08;;;;;;;;;;6303530;28;20063;-66
2022/02/27 00:21:13;;;;;;;6.82;3.30;;;;;;;;;;6309505;28;20052;-66
2022/02/27 00:24:15;;;;;;;4.65;3.00;;;;;;;;;;6302162;28;20182;-66
2022/02/27 00:27:18;;;;;;;8.30;3.35;;;;;;;;;;6307928;28;20587;-65
2022/02/27 00:30:20;;;;;;;5.88;3.60;;;;;;;;;;6308531;28;20052;-66
2022/02/27 00:33:21;;;;;;;6.32;3.10;;;;;;;;;;6314694;28;20044;-66
2022/02/27 00:36:23;;;;;;;5.75;3.45;;;;;;;;;;6311796;27;20166;-66
2022/02/27 00:39:24;;;;;;;5.57;3.67;;;;;;;;;;6309460;28;20052;-66
2022/02/27 00:42:27;;;;;;;6.95;3.50;;;;;;;;;;6306442;28;20055;-66
2022/02/27 00:45:29;;;;;;;5.97;3.80;;;;;;;;;;6311820;28;20048;-65
2022/02/27 00:48:30;;;;;;;6.35;3.22;;;;;;;;;;6308528;28;20135;-66
2022/02/27 00:51:32;;;;;;;6.28;4.07;;;;;;;;;;6307213;28;20587;-66
2022/02/27 00:54:34;;;;;;;7.20;3.70;;;;;;;;;;6305325;28;20047;-67
2022/02/27 00:57:37;;;;;;;185.07;81.18;;;;;;;;;;6308275;28;20610;-69
2022/02/27 01:00:38;;;;;;;143.77;67.30;;;;;;;;;;6311907;28;20212;-68
2022/02/27 01:03:40;;;;;;;113.20;48.88;;;;;;;;;;6311197;28;20079;-69
2022/02/27 01:06:42;;;;;;;54.95;25.75;;;;;;;;;;6316257;28;20125;-69
2022/02/27 01:09:43;;;;;;;45.17;20.92;;;;;;;;;;6314388;28;20377;-69
2022/02/27 01:12:46;;;;;;;32.15;16.52;;;;;;;;;;6318436;28;20149;-67
2022/02/27 01:15:47;;;;;;;9.52;4.63;;;;;;;;;;6316561;28;20593;-66
2022/02/27 01:18:49;;;;;;;3.85;2.80;;;;;;;;;;6311644;28;20040;-65
2022/02/27 01:21:51;;;;;;;6.07;3.20;;;;;;;;;;6312153;28;20556;-66
2022/02/27 01:24:52;;;;;;;7.05;3.22;;;;;;;;;;6311568;28;20178;-65
2022/02/27 01:27:55;;;;;;;5.57;3.47;;;;;;;;;;6310068;28;20045;-65
2022/02/27 01:30:57;;;;;;;6.00;3.00;;;;;;;;;;6310940;28;20044;-66
2022/02/27 01:33:58;;;;;;;8.05;3.42;;;;;;;;;;6313416;28;20048;-66
2022/02/27 01:37:00;;;;;;;6.00;3.20;;;;;;;;;;6306073;27;20103;-66
2022/02/27 01:40:02;;;;;;;6.57;3.05;;;;;;;;;;6302627;28;20089;-66
2022/02/27 01:43:04;;;;;;;5.15;3.58;;;;;;;;;;6305947;28;20051;-66
2022/02/27 01:46:09;;;;;;;5.43;3.03;;;;;;;;;;6317078;28;20048;-66
2022/02/27 01:49:10;;;;;;;;;;;;;;;;;;6316705;28;20129;-66
2022/02/27 01:52:12;;;;;;;6.53;2.97;;;;;;;;;;6315225;28;20029;-66
2022/02/27 01:55:14;;;;;;;5.22;2.83;;;;;;;;;;6313423;28;20049;-66
2022/02/27 01:58:17;;;;;;;7.00;2.80;;;;;;;;;;6306708;28;20094;-66
2022/02/27 02:01:18;;;;;;;4.53;2.85;;;;;;;;;;6308948;28;20044;-66
2022/02/27 02:04:20;;;;;;;5.15;2.88;;;;;;;;;;6307533;28;20580;-66
2022/02/27 02:07:21;;;;;;;6.90;3.10;;;;;;;;;;6306965;28;20131;-67
2022/02/27 02:10:23;;;;;;;6.65;3.30;;;;;;;;;;6303272;28;20389;-67
2022/02/27 02:13:26;;;;;;;7.15;3.50;;;;;;;;;;6300149;28;20182;-67
2022/02/27 02:16:38;;;;;;;6.15;2.63;;;;;;;;;;6302310;28;20058;-66
2022/02/27 02:19:40;;;;;;;6.35;3.35;;;;;;;;;;6304715;28;20571;-66
2022/02/27 02:22:43;;;;;;;6.18;3.00;;;;;;;;;;6308155;28;20048;-66
2022/02/27 02:25:44;;;;;;;7.85;3.25;;;;;;;;;;6309980;28;20044;-66
2022/02/27 02:28:46;;;;;;;8.15;3.28;;;;;;;;;;6307714;28;20489;-66
2022/02/27 02:31:49;;;;;;;4.43;2.65;;;;;;;;;;6306080;28;20057;-66
2022/02/27 02:34:50;;;;;;;7.00;2.80;;;;;;;;;;6310023;28;20121;-66
2022/02/27 02:37:54;;;;;;;7.68;2.80;;;;;;;;;;6300552;28;20075;-66
2022/02/27 02:40:56;;;;;;;4.25;2.55;;;;;;;;;;6302821;28;20041;-67
2022/02/27 02:43:57;;;;;;;5.90;2.63;;;;;;;;;;6306609;28;20121;-66
2022/02/27 02:46:59;;;;;;;5.10;2.47;;;;;;;;;;6305574;28;20056;-66
2022/02/27 02:50:01;;;;;;;5.22;2.85;;;;;;;;;;6306615;28;20079;-66
2022/02/27 02:53:04;;;;;;;5.05;2.63;;;;;;;;;;6308874;28;20067;-67
2022/02/27 02:56:06;;;;;;;5.63;2.45;;;;;;;;;;6303038;28;20118;-65
2022/02/27 02:59:08;;;;;;;5.20;2.75;;;;;;;;;;6301393;28;20054;-66
2022/02/27 03:02:09;;;;;;;6.45;2.83;;;;;;;;;;6306659;28;20410;-66
2022/02/27 03:05:11;;;;;;;9.23;2.78;;;;;;;;;;6305921;28;20145;-66
2022/02/27 03:08:14;;;;;;;4.47;2.78;;;;;;;;;;6300631;28;20474;-66
2022/02/27 03:11:19;;;;;;;9.85;2.95;;;;;;;;;;6300762;28;20496;-66
2022/02/27 03:14:21;;;;;;;6.80;2.70;;;;;;;;;;6306971;28;20048;-66
2022/02/27 03:17:23;;;;;;;5.18;2.60;;;;;;;;;;6305311;28;20128;-67
2022/02/27 03:20:24;;;;;;;4.35;2.78;;;;;;;;;;6306943;28;20056;-66
2022/02/27 03:23:27;;;;;;;6.13;2.70;;;;;;;;;;6306599;28;20496;-66
2022/02/27 03:26:29;;;;;;;6.72;2.78;;;;;;;;;;6310057;28;20189;-65
2022/02/27 03:29:30;;;;;;;6.00;2.80;;;;;;;;;;6300712;28;20045;-66
2022/02/27 03:32:32;;;;;;;5.13;2.47;;;;;;;;;;6306945;28;20108;-66
2022/02/27 03:35:35;;;;;;;4.68;2.40;;;;;;;;;;6308849;28;20177;-66
2022/02/27 03:38:37;;;;;;;6.35;2.70;;;;;;;;;;6287471;28;20817;-66
2022/02/27 03:41:39;;;;;;;8.55;3.08;;;;;;;;;;6284124;27;20074;-65
2022/02/27 03:44:41;;;;;;;8.57;3.17;;;;;;;;;;6283192;28;20068;-65
2022/02/27 03:47:43;;;;;;;6.68;2.60;;;;;;;;;;6283464;28;20048;-65
2022/02/27 03:50:45;;;;;;;4.72;2.58;;;;;;;;;;6285312;28;20401;-65
2022/02/27 03:53:48;;;;;;;5.03;2.53;;;;;;;;;;6275756;28;20620;-65
2022/02/27 03:56:49;;;;;;;4.30;2.35;;;;;;;;;;6276489;28;20492;-66
2022/02/27 03:59:51;;;;;;;7.38;3.00;;;;;;;;;;6278426;28;20670;-65
2022/02/27 04:02:53;;;;;;;4.07;2.28;;;;;;;;;;6292153;28;20169;-66
2022/02/27 04:05:54;;;;;;;6.68;2.72;;;;;;;;;;6287933;28;20293;-65
2022/02/27 04:08:57;;;;;;;5.97;2.60;;;;;;;;;;6279825;28;20088;-65
2022/02/27 04:11:59;;;;;;;5.72;2.47;;;;;;;;;;6278896;28;20127;-66
2022/02/27 04:15:00;;;;;;;4.22;2.30;;;;;;;;;;6291251;28;20189;-65
2022/02/27 04:18:02;;;;;;;5.13;2.60;;;;;;;;;;6303403;28;20061;-65
2022/02/27 04:21:03;;;;;;;7.70;3.53;;;;;;;;;;6304409;28;20047;-66
2022/02/27 04:24:06;;;;;;;5.88;2.67;;;;;;;;;;6304629;28;20123;-65
2022/02/27 04:27:08;;;;;;;7.07;3.45;;;;;;;;;;6307883;28;20193;-66
2022/02/27 04:30:10;;;;;;;6.00;2.78;;;;;;;;;;6305509;28;20049;-65
2022/02/27 04:33:11;;;;;;;7.55;2.47;;;;;;;;;;6305025;28;20125;-65
2022/02/27 04:36:13;;;;;;;4.88;2.60;;;;;;;;;;6308016;28;20048;-65
2022/02/27 04:39:16;;;;;;;3.85;2.55;;;;;;;;;;6306231;28;20480;-65
2022/02/27 04:42:17;;;;;;;6.63;2.80;;;;;;;;;;6308270;28;20209;-65
2022/02/27 04:45:19;;;;;;;6.78;2.80;;;;;;;;;;6306317;28;20495;-65
2022/02/27 04:48:21;;;;;;;4.38;2.63;;;;;;;;;;6308050;28;20076;-65
2022/02/27 04:51:23;;;;;;;7.30;2.60;;;;;;;;;;6305766;28;20048;-65
2022/02/27 04:54:26;;;;;;;7.25;2.90;;;;;;;;;;6302988;28;20044;-66
2022/02/27 04:57:28;;;;;;;7.00;2.72;;;;;;;;;;6304298;28;20067;-65
2022/02/27 05:00:29;;;;;;;5.38;2.78;;;;;;;;;;6301854;28;20040;-66
2022/02/27 05:03:31;;;;;;;8.13;2.78;;;;;;;;;;6301246;28;20396;-65
2022/02/27 05:06:33;;;;;;;5.05;2.45;;;;;;;;;;6305008;28;20459;-66
2022/02/27 05:09:36;;;;;;;8.55;3.15;;;;;;;;;;6310797;28;20049;-66
2022/02/27 05:12:38;;;;;;;7.72;3.10;;;;;;;;;;6304726;28;20059;-65
2022/02/27 05:15:40;;;;;;;7.97;3.50;;;;;;;;;;6310158;28;20135;-66
2022/02/27 05:18:41;;;;;;;8.82;3.17;;;;;;;;;;6307366;28;20105;-66
2022/02/27 05:21:43;;;;;;;7.38;3.72;;;;;;;;;;6307838;28;20127;-65
2022/02/27 05:24:46;;;;;;;5.22;3.17;;;;;;;;;;6304762;28;20150;-65
2022/02/27 05:27:48;;;;;;;6.25;3.30;;;;;;;;;;6304034;28;20057;-66
2022/02/27 05:30:50;;;;;;;7.45;3.35;;;;;;;;;;6307571;28;20852;-65
2022/02/27 05:33:51;;;;;;;10.13;3.53;;;;;;;;;;6310043;28;20070;-65
2022/02/27 05:36:54;;;;;;;6.68;2.88;;;;;;;;;;6311677;28;20075;-66
2022/02/27 05:39:57;;;;;;;7.97;2.80;;;;;;;;;;6310265;28;20056;-66
2022/02/27 05:42:58;;;;;;;8.13;3.38;;;;;;;;;;6306159;28;20131;-66
2022/02/27 05:46:00;;;;;;;7.95;3.70;;;;;;;;;;6310336;28;20144;-65
2022/02/27 05:49:01;;;;;;;7.43;3.10;;;;;;;;;;6317929;28;20177;-65
2022/02/27 05:52:04;;;;;;;5.35;3.20;;;;;;;;;;6306394;28;20531;-66
2022/02/27 05:55:08;;;;;;;7.28;3.22;;;;;;;;;;6316145;28;20123;-66
2022/02/27 05:58:09;;;;;;;5.07;3.10;;;;;;;;;;6314054;28;20090;-66
2022/02/27 06:01:11;;;;;;;6.72;2.70;;;;;;;;;;6308722;28;20077;-65
2022/02/27 06:04:13;;;;;;;6.00;2.63;;;;;;;;;;6308737;28;20086;-66
2022/02/27 06:07:14;;;;;;;6.78;2.97;;;;;;;;;;6308819;28;20193;-65
2022/02/27 06:10:17;;;;;;;6.72;2.83;;;;;;;;;;6308795;28;20110;-66
2022/02/27 06:13:19;;;;;;;4.88;2.80;;;;;;;;;;6305467;28;20531;-65
2022/02/27 06:16:20;;;;;;;6.80;2.95;;;;;;;;;;6303798;28;20048;-66
2022/02/27 06:19:22;;;;;;;4.82;2.33;;;;;;;;;;6306291;28;20067;-65
2022/02/27 06:22:24;;;;;;;8.20;3.53;;;;;;;;;;6309738;28;20135;-65
2022/02/27 06:25:27;;;;;;;4.50;2.88;;;;;;;;;;6312048;28;20500;-66
2022/02/27 06:28:29;;;;;;;6.68;2.55;;;;;;;;;;6316929;28;20125;-66
2022/02/27 06:31:30;;;;;;;5.63;3.00;;;;;;;;;;6312189;28;20135;-66
2022/02/27 06:34:32;;;;;;;3.83;2.80;;;;;;;;;;6310635;28;20097;-65
2022/02/27 06:37:33;;;;;;;3.25;2.47;;;;;;;;;;6314534;28;20110;-65
2022/02/27 06:40:36;;;;;;;7.90;2.65;;;;;;;;;;6307369;28;20104;-66
2022/02/27 06:43:38;;;;;;;6.15;2.60;;;;;;;;;;6307608;28;20550;-66
2022/02/27 06:46:40;;;;;;;4.60;2.88;;;;;;;;;;6307092;28;20104;-65
2022/02/27 06:49:41;;;;;;;4.72;2.20;;;;;;;;;;6304631;28;20053;-65
2022/02/27 06:52:43;;;;;;;4.97;2.47;;;;;;;;;;6308313;28;20074;-66
2022/02/27 06:55:46;;;;;;;5.15;2.60;;;;;;;;;;6309264;28;20403;-65
2022/02/27 06:58:47;;;;;;;8.35;3.00;;;;;;;;;;6308625;28;20040;-66
2022/02/27 07:01:49;;;;;;;5.75;2.53;;;;;;;;;;6306148;28;20060;-66
2022/02/27 07:04:50;;;;;;;6.53;2.30;;;;;;;;;;6309710;28;20116;-65
2022/02/27 07:07:52;;;;;;;6.32;2.05;;;;;;;;;;6308327;28;20131;-66
2022/02/27 07:10:57;;;;;;;6.50;2.38;;;;;;;;;;6311602;28;20121;-65
2022/02/27 07:13:59;;;;;;;4.65;2.10;;;;;;;;;;6303756;28;20044;-66
2022/02/27 07:17:00;;;;;;;6.50;2.20;;;;;;;;;;6307569;28;20134;-64
2022/02/27 07:20:02;;;;;;;10.50;2.40;;;;;;;;;;6304970;28;20730;-64
2022/02/27 07:23:03;;;;;;;4.47;2.40;;;;;;;;;;6304552;28;20122;-65
2022/02/27 07:26:06;;;;;;;4.22;2.40;;;;;;;;;;6303815;28;20127;-65
2022/02/27 07:29:08;;;;;;;4.15;2.22;;;;;;;;;;6301091;28;20102;-65
2022/02/27 07:32:11;;;;;;;3.42;1.80;;;;;;;;;;6305046;28;20048;-66
2022/02/27 07:35:12;;;;;;;3.63;2.20;;;;;;;;;;6307702;28;20098;-65
2022/02/27 07:38:14;;;;;;;4.63;2.20;;;;;;;;;;6306428;28;20097;-65
2022/02/27 07:41:17;;;;;;;4.00;2.03;;;;;;;;;;6305087;28;20079;-66
2022/02/27 07:44:19;;;;;;;8.23;2.47;;;;;;;;;;6307556;28;20373;-65
2022/02/27 07:47:20;;;;;;;4.63;2.47;;;;;;;;;;6310776;28;20554;-66
2022/02/27 07:50:22;;;;;;;3.50;2.30;;;;;;;;;;6308354;28;20137;-66
2022/02/27 07:53:24;;;;;;;8.85;2.47;;;;;;;;;;6307750;28;20082;-65
2022/02/27 07:56:27;;;;;;;4.07;2.20;;;;;;;;;;6305732;28;20112;-65
2022/02/27 07:59:29;;;;;;;6.80;2.30;;;;;;;;;;6306016;28;20156;-67
2022/02/27 08:02:30;;;;;;;5.32;2.13;;;;;;;;;;6303904;28;20151;-66
2022/02/27 08:05:32;;;;;;;3.58;2.20;;;;;;;;;;6307610;28;20507;-65
2022/02/27 08:08:34;;;;;;;5.03;2.50;;;;;;;;;;6309498;28;20076;-65
2022/02/27 08:11:37;;;;;;;4.07;2.40;;;;;;;;;;6307298;28;20127;-66
2022/02/27 08:14:39;;;;;;;3.87;2.50;;;;;;;;;;6305400;28;20182;-65
2022/02/27 08:17:41;;;;;;;4.97;2.88;;;;;;;;;;6305878;28;20055;-65
2022/02/27 08:20:42;;;;;;;4.93;2.15;;;;;;;;;;6305895;28;20500;-65
2022/02/27 08:23:44;;;;;;;8.10;2.50;;;;;;;;;;6301867;28;20056;-65
2022/02/27 08:26:47;;;;;;;4.10;2.50;;;;;;;;;;6308364;28;20048;-65
2022/02/27 08:29:49;;;;;;;6.03;2.75;;;;;;;;;;6305480;28;20054;-65
2022/02/27 08:32:51;;;;;;;4.63;2.58;;;;;;;;;;6307729;28;20511;-65
2022/02/27 08:35:53;;;;;;;3.67;2.20;;;;;;;;;;6306332;28;20389;-66
2022/02/27 08:38:54;;;;;;;5.35;2.72;;;;;;;;;;6306159;28;20463;-65
2022/02/27 08:41:57;;;;;;;5.40;2.70;;;;;;;;;;6302251;28;20037;-65
2022/02/27 08:44:59;;;;;;;12.18;2.67;;;;;;;;;;6307057;28;20566;-65
2022/02/27 08:48:00;;;;;;;6.20;2.40;;;;;;;;;;6305146;28;20109;-65
2022/02/27 08:51:02;;;;;;;3.88;2.03;;;;;;;;;;6306112;28;20129;-65
2022/02/27 08:54:04;;;;;;;3.47;2.08;;;;;;;;;;6302969;28;20136;-65
2022/02/27 08:57:07;;;;;;;3.80;2.03;;;;;;;;;;6301164;28;20151;-65
2022/02/27 09:00:10;;;;;;;6.03;2.10;;;;;;;;;;6298496;28;20074;-64
2022/02/27 09:03:11;;;;;;;4.50;2.00;;;;;;;;;;6301272;28;20044;-64
2022/02/27 09:06:13;;;;;;;4.32;2.20;;;;;;;;;;6308657;28;20128;-64
2022/02/27 09:09:15;;;;;;;3.33;1.98;;;;;;;;;;6311463;28;20484;-64
2022/02/27 09:12:18;;;;;;;3.15;1.75;;;;;;;;;;6304202;28;20068;-63
2022/02/27 09:15:20;;;;;;;5.53;2.50;;;;;;;;;;6307130;28;20222;-66
2022/02/27 09:18:21;;;;;;;4.55;2.30;;;;;;;;;;6311177;28;20139;-63
2022/02/27 09:21:28;;;;;;;6.70;1.92;;;;;;;;;;6310056;28;20045;-63
2022/02/27 09:24:29;;;;;;;4.05;2.15;;;;;;;;;;6308681;28;20059;-63
2022/02/27 09:27:32;;;;;;;4.78;2.05;;;;;;;;;;6310407;28;20049;-65
2022/02/27 09:30:35;;;;;;;4.93;1.98;;;;;;;;;;6308696;28;20128;-65
2022/02/27 09:33:36;;;;;;;4.47;2.20;;;;;;;;;;6308598;28;20491;-66
2022/02/27 09:36:39;;;;;;;9.15;2.80;;;;;;;;;;6305075;28;20055;-65
2022/02/27 09:39:40;;;;;;;5.68;2.08;;;;;;;;;;6303385;28;20527;-65
2022/02/27 09:42:45;;;;;;;4.57;1.95;;;;;;;;;;6305561;28;20131;-66
2022/02/27 09:45:47;;;;;;;3.30;1.75;;;;;;;;;;6310060;28;20055;-66
2022/02/27 09:48:49;;;;;;;5.38;2.45;;;;;;;;;;6311935;28;20560;-65
2022/02/27 09:51:50;;;;;;;3.45;2.10;;;;;;;;;;6308313;28;20048;-65
2022/02/27 09:54:52;;;;;;;5.65;2.10;;;;;;;;;;6316819;28;20488;-65
2022/02/27 09:57:55;;;;;;;6.03;3.05;;;;;;;;;;6312227;28;20117;-65
2022/02/27 10:00:57;;;;;;;5.03;2.15;;;;;;;;;;6311721;28;20138;-66
2022/02/27 10:04:00;;;;;;;4.03;2.22;;;;;;;;;;6311163;28;20097;-65
2022/02/27 10:07:01;;;;;;;4.65;2.40;;;;;;;;;;6301636;28;20476;-66
2022/02/27 10:10:05;;;;;;;5.60;2.33;;;;;;;;;;6307149;28;20072;-66
2022/02/27 10:13:08;;;;;;;5.50;2.33;;;;;;;;;;6303111;28;20060;-66
2022/02/27 10:16:11;;;;;;;3.92;2.20;;;;;;;;;;6303657;28;20049;-66
2022/02/27 10:19:16;;;;;;;2.70;2.00;;;;;;;;;;6308312;28;20059;-66
2022/02/27 10:22:18;;;;;;;3.88;2.22;;;;;;;;;;6304722;28;20048;-66
2022/02/27 10:25:21;;;;;;;9.82;2.30;;;;;;;;;;6305999;28;20134;-66
2022/02/27 10:28:24;;;;;;;2.97;2.10;;;;;;;;;;6306666;27;20087;-65
2022/02/27 10:31:28;;;;;;;4.85;2.30;;;;;;;;;;6307699;28;21425;-66
2022/02/27 10:34:32;;;;;;;4.10;2.33;;;;;;;;;;6308245;28;20051;-66
2022/02/27 10:37:33;;;;;;;3.72;2.10;;;;;;;;;;6304102;28;20127;-67
2022/02/27 10:40:39;;;;;;;7.10;2.53;;;;;;;;;;6307890;28;20415;-66
2022/02/27 10:43:43;;;;;;;5.53;2.63;;;;;;;;;;6309322;28;20052;-65
2022/02/27 10:46:45;;;;;;;4.63;2.38;;;;;;;;;;6307841;28;20511;-65
2022/02/27 10:49:48;;;;;;;4.38;2.30;;;;;;;;;;6305506;28;20133;-66
2022/02/27 10:52:49;;;;;;;4.63;2.07;;;;;;;;;;6303953;28;20527;-66
2022/02/27 10:55:58;;;;;;;2.70;2.08;;;;;;;;;;6309630;28;20128;-66
2022/02/27 10:59:12;;;;;;;3.38;2.20;;;;;;;;;;6304524;28;20052;-64
2022/02/27 11:02:13;;;;;;;2.30;1.77;;;;;;;;;;6303660;28;20089;-64
2022/02/27 11:05:17;;;;;;;3.95;2.25;;;;;;;;;;6307394;28;20129;-64
2022/02/27 11:08:18;;;;;;;4.75;2.38;;;;;;;;;;6312623;28;20571;-65
2022/02/27 11:11:20;;;;;;;3.22;2.35;;;;;;;;;;6308856;28;20040;-66
2022/02/27 11:14:23;;;;;;;5.20;2.42;;;;;;;;;;6311410;28;20145;-66
2022/02/27 11:17:25;;;;;;;3.53;2.30;;;;;;;;;;6307443;28;20047;-66
2022/02/27 11:20:27;;;;;;;3.75;2.30;;;;;;;;;;6306313;28;20057;-66
2022/02/27 11:23:29;;;;;;;3.95;2.20;;;;;;;;;;6307386;28;20037;-65
2022/02/27 11:26:31;;;;;;;2.97;2.10;;;;;;;;;;6306723;28;20159;-66
2022/02/27 11:29:34;;;;;;;4.07;2.17;;;;;;;;;;6304401;28;20186;-65
2022/02/27 11:32:45;;;;;;;7.82;2.65;;;;;;;;;;6305931;28;20630;-65
2022/02/27 11:35:50;;;;;;;4.15;2.40;;;;;;;;;;6309302;28;20048;-65
2022/02/27 11:38:59;;;;;;;3.90;2.38;;;;;;;;;;6310770;28;20460;-67
2022/02/27 11:42:01;;;;;;;4.35;2.42;;;;;;;;;;6309690;28;20181;-66
2022/02/27 11:45:04;;;;;;;4.15;2.20;;;;;;;;;;6314338;28;20562;-65
2022/02/27 11:48:06;;;;;;;3.78;2.20;;;;;;;;;;6311055;28;20052;-67
2022/02/27 11:51:08;;;;;;;5.07;2.45;;;;;;;;;;6310433;28;20410;-67
2022/02/27 11:54:11;;;;;;;3.33;2.50;;;;;;;;;;6308603;28;20126;-66
2022/02/27 11:57:15;;;;;;;4.28;2.47;;;;;;;;;;6305762;28;20069;-66
2022/02/27 12:00:19;;;;;;;4.38;2.60;;;;;;;;;;6304212;28;20052;-64
2022/02/27 12:03:37;;;;;;;4.35;2.72;;;;;;;;;;6304207;28;20538;-64
2022/02/27 12:06:59;;;;;;;3.95;2.70;;;;;;;;;;6304638;28;20048;-65
2022/02/27 12:10:02;;;;;;;4.57;2.67;;;;;;;;;;6302001;28;20121;-64
2022/02/27 12:13:17;;;;;;;3.83;2.60;;;;;;;;;;6301928;28;20075;-64
2022/02/27 12:16:35;;;;;;;4.22;2.50;;;;;;;;;;6304803;28;20052;-65
2022/02/27 12:19:36;;;;;;;3.97;2.42;;;;;;;;;;6302572;28;20064;-65
2022/02/27 12:22:44;;;;;;;4.53;2.67;;;;;;;;;;6301549;28;20072;-65
2022/02/27 12:25:46;;;;;;;2.90;2.38;;;;;;;;;;6303769;28;20183;-64
2022/02/27 12:28:57;;;;;;;6.95;2.35;;;;;;;;;;6306958;28;20139;-65
2022/02/27 12:32:06;;;;;;;3.67;1.83;;;;;;;;;;6304875;28;20045;-65
2022/02/27 12:35:08;;;;;;;2.42;1.75;;;;;;;;;;6306093;28;20137;-64
2022/02/27 12:38:13;;;;;;;2.58;1.67;;;;;;;;;;6303627;28;20068;-69
2022/02/27 12:41:18;;;;;;;2.55;1.60;;;;;;;;;;6301260;28;20519;-72
2022/02/27 12:44:25;;;;;;;2.13;1.40;;;;;;;;;;6310424;28;20570;-72
2022/02/27 12:47:28;;;;;;;2.13;1.73;;;;;;;;;;6304637;28;20400;-72
2022/02/27 12:50:32;;;;;;;3.53;1.50;;;;;;;;;;6302553;28;20067;-71
2022/02/27 12:53:35;;;;;;;2.17;1.27;;;;;;;;;;6301299;28;20709;-72
2022/02/27 12:56:37;;;;;;;2.23;1.43;;;;;;;;;;6303837;28;20411;-70
2022/02/27 12:59:41;;;;;;;3.15;1.52;;;;;;;;;;6303616;28;20048;-67
2022/02/27 13:02:44;;;;;;;3.78;1.60;;;;;;;;;;6302456;28;20048;-68
2022/02/27 13:05:45;;;;;;;1.83;1.43;;;;;;;;;;6306978;28;20132;-69
2022/02/27 13:08:49;;;;;;;3.08;1.45;;;;;;;;;;6306551;28;20461;-69
2022/02/27 13:11:51;;;;;;;;;;;;;;;;;;6305074;28;20049;-69
2022/02/27 13:14:53;;;;;;;1.90;1.30;;;;;;;;;;6300833;28;20050;-68
2022/02/27 13:17:56;;;;;;;3.40;1.50;;;;;;;;;;6302110;28;20045;-69
2022/02/27 13:20:58;;;;;;;4.75;2.75;;;;;;;;;;6299732;28;20138;-69
2022/02/27 13:24:01;;;;;;;2.55;1.70;;;;;;;;;;6305391;28;20075;-69
2022/02/27 13:27:05;;;;;;;2.75;2.05;;;;;;;;;;6306045;28;20051;-70
2022/02/27 13:30:09;;;;;;;;;;;;;;;;;;6307942;28;20059;-70
2022/02/27 13:33:12;;;;;;;4.57;2.40;;;;;;;;;;6304193;28;19942;-70
2022/02/27 13:36:13;;;;;;;4.85;2.53;;;;;;;;;;6304482;28;20051;-69
2022/02/27 13:39:15;;;;;;;3.03;1.92;;;;;;;;;;6311522;28;20077;-70
2022/02/27 13:42:20;;;;;;;3.55;2.55;;;;;;;;;;6308904;28;20135;-70
2022/02/27 13:45:30;;;;;;;3.78;2.63;;;;;;;;;;6303197;28;20654;-69
2022/02/27 13:48:37;;;;;;;5.40;3.10;;;;;;;;;;6303027;28;20084;-70
2022/02/27 13:51:38;;;;;;;5.10;2.63;;;;;;;;;;6304233;28;20061;-67
2022/02/27 13:54:43;;;;;;;5.18;2.80;;;;;;;;;;6307403;28;20133;-70
2022/02/27 13:57:45;;;;;;;4.03;2.55;;;;;;;;;;6309768;28;20606;-69
2022/02/27 14:00:51;;;;;;;3.30;2.63;;;;;;;;;;6307078;28;20044;-69
2022/02/27 14:03:54;;;;;;;4.43;2.60;;;;;;;;;;6310412;28;20044;-69
2022/02/27 14:06:55;;;;;;;5.57;3.17;;;;;;;;;;6309446;28;20089;-69
2022/02/27 14:09:57;;;;;;;4.15;2.63;;;;;;;;;;6307760;28;20119;-69
2022/02/27 14:13:01;;;;;;;4.55;2.88;;;;;;;;;;6309524;28;20362;-68
2022/02/27 14:16:03;;;;;;;3.90;2.55;;;;;;;;;;6305832;28;20086;-68
2022/02/27 14:19:10;;;;;;;4.18;2.65;;;;;;;;;;6307384;28;20051;-67
2022/02/27 14:22:12;;;;;;;3.40;2.65;;;;;;;;;;6305069;28;20062;-67
2022/02/27 14:25:14;;;;;;;3.63;2.67;;;;;;;;;;6309316;28;20117;-68
2022/02/27 14:28:15;;;;;;;5.82;2.20;;;;;;;;;;6304804;28;20055;-68
2022/02/27 14:31:18;;;;;;;5.82;2.45;;;;;;;;;;6311193;28;20041;-69
2022/02/27 14:34:23;;;;;;;5.53;2.37;;;;;;;;;;6315324;28;20062;-68
2022/02/27 14:37:25;;;;;;;4.75;2.55;;;;;;;;;;6312492;28;20048;-68
2022/02/27 14:40:27;;;;;;;9.73;2.55;;;;;;;;;;6312176;28;20130;-68
2022/02/27 14:43:29;;;;;;;3.95;2.55;;;;;;;;;;6307736;28;20068;-68
2022/02/27 14:46:31;;;;;;;3.53;2.33;;;;;;;;;;6304286;28;20192;-67
2022/02/27 14:49:34;;;;;;;4.05;2.10;;;;;;;;;;6310185;28;20143;-67
2022/02/27 14:52:35;;;;;;;3.30;2.20;;;;;;;;;;6304717;28;20055;-68
2022/02/27 14:55:37;;;;;;;4.32;2.35;;;;;;;;;;6305231;28;20176;-67
2022/02/27 14:58:38;;;;;;;5.50;2.40;;;;;;;;;;6305125;28;20353;-68
2022/02/27 15:01:40;;;;;;;7.05;2.50;;;;;;;;;;6300265;28;20063;-67
2022/02/27 15:04:43;;;;;;;4.53;2.40;;;;;;;;;;6304356;28;20742;-67
2022/02/27 15:07:44;;;;;;;3.13;2.17;;;;;;;;;;6308698;28;20118;-67
2022/02/27 15:10:46;;;;;;;5.88;2.33;;;;;;;;;;6314368;28;20462;-68
2022/02/27 15:13:48;;;;;;;5.97;2.70;;;;;;;;;;6312471;28;20055;-68
2022/02/27 15:16:50;;;;;;;2.90;2.28;;;;;;;;;;6306323;28;20405;-68
2022/02/27 15:19:53;;;;;;;5.93;2.42;;;;;;;;;;6305170;28;20495;-68
2022/02/27 15:22:54;;;;;;;3.10;2.15;;;;;;;;;;6304346;28;20067;-68
2022/02/27 15:25:56;;;;;;;2.47;1.90;;;;;;;;;;6302694;28;20088;-68
2022/02/27 15:28:57;;;;;;;5.25;2.00;;;;;;;;;;6304180;28;20127;-69
2022/02/27 15:31:59;;;;;;;4.07;2.30;;;;;;;;;;6300604;28;20480;-68
2022/02/27 15:35:02;;;;;;;5.45;2.10;;;;;;;;;;6299489;28;20119;-69
2022/02/27 15:38:04;;;;;;;2.70;1.70;;;;;;;;;;6297279;28;20496;-70
2022/02/27 15:41:06;;;;;;;3.95;2.08;;;;;;;;;;6302434;28;20060;-63
2022/02/27 15:44:08;;;;;;;4.05;1.88;;;;;;;;;;6314382;28;20052;-63
2022/02/27 15:47:09;;;;;;;5.15;1.90;;;;;;;;;;6315078;28;20403;-64
2022/02/27 15:50:12;;;;;;;3.70;2.00;;;;;;;;;;6307429;28;20043;-65
2022/02/27 15:53:14;;;;;;;4.18;1.90;;;;;;;;;;6303617;28;20052;-63
2022/02/27 15:56:16;;;;;;;4.40;2.22;;;;;;;;;;6306632;28;20055;-65
2022/02/27 15:59:17;;;;;;;2.47;2.00;;;;;;;;;;6306517;28;20152;-66
2022/02/27 16:02:19;;;;;;;3.55;1.95;;;;;;;;;;6306677;28;20118;-64
2022/02/27 16:05:22;;;;;;;3.25;1.80;;;;;;;;;;6304287;28;20105;-66
2022/02/27 16:08:24;;;;;;;5.90;1.70;;;;;;;;;;6302447;28;20084;-63
2022/02/27 16:11:26;;;;;;;2.95;2.00;;;;;;;;;;6302820;28;20080;-64
2022/02/27 16:14:28;;;;;;;10.13;2.10;;;;;;;;;;6295891;28;20124;-66
2022/02/27 16:17:29;;;;;;;2.60;1.95;;;;;;;;;;6302215;28;20537;-62
2022/02/27 16:20:32;;;;;;;6.22;2.30;;;;;;;;;;6302027;28;20060;-64
2022/02/27 16:23:34;;;;;;;17.07;3.07;;;;;;;;;;6299452;28;20044;-64
2022/02/27 16:26:35;;;;;;;29.40;4.07;;;;;;;;;;6300400;28;20425;-64
2022/02/27 16:29:37;;;;;;;4.90;1.65;;;;;;;;;;6306769;28;20500;-65
2022/02/27 16:32:39;;;;;;;2.92;1.77;;;;;;;;;;6309183;28;20507;-65
2022/02/27 16:35:41;;;;;;;2.67;1.55;;;;;;;;;;6307470;28;20189;-65
2022/02/27 16:38:43;;;;;;;3.78;1.50;;;;;;;;;;6307630;28;20071;-64
2022/02/27 16:41:45;;;;;;;2.83;1.65;;;;;;;;;;6303658;28;20177;-64
2022/02/27 16:44:46;;;;;;;3.85;1.83;;;;;;;;;;6303140;28;20400;-66
2022/02/27 16:47:48;;;;;;;2.25;1.63;;;;;;;;;;6301616;28;20610;-68
2022/02/27 16:50:51;;;;;;;2.38;1.27;;;;;;;;;;6305826;28;20048;-67
2022/02/27 16:53:55;;;;;;;4.47;1.50;;;;;;;;;;6303287;28;20224;-68
2022/02/27 16:56:56;;;;;;;2.78;1.50;;;;;;;;;;6303523;28;20124;-68
2022/02/27 16:59:58;;;;;;;2.35;1.40;;;;;;;;;;6302062;28;20056;-68
2022/02/27 17:02:59;;;;;;;2.40;1.50;;;;;;;;;;6304395;28;20123;-68
2022/02/27 17:06:03;;;;;;;4.40;1.40;;;;;;;;;;6309929;28;20045;-68
2022/02/27 17:09:04;;;;;;;2.90;1.50;;;;;;;;;;6308226;28;20071;-68
2022/02/27 17:12:06;;;;;;;3.90;1.80;;;;;;;;;;6301368;28;20170;-68
2022/02/27 17:15:09;;;;;;;2.70;1.75;;;;;;;;;;6301479;28;20127;-68
2022/02/27 17:18:10;;;;;;;4.32;1.63;;;;;;;;;;6300556;28;20400;-68
2022/02/27 17:21:14;;;;;;;5.55;1.85;;;;;;;;;;6300716;28;20068;-68
2022/02/27 17:24:15;;;;;;;4.55;2.20;;;;;;;;;;6302735;28;20048;-68
2022/02/27 17:27:17;;;;;;;3.33;2.38;;;;;;;;;;6306911;28;20130;-69
2022/02/27 17:30:19;;;;;;;3.30;2.10;;;;;;;;;;6310362;28;20372;-68
2022/02/27 17:33:21;;;;;;;3.85;2.40;;;;;;;;;;6308460;28;20488;-68
2022/02/27 17:36:24;;;;;;;6.15;2.35;;;;;;;;;;6304832;28;20045;-68
2022/02/27 17:39:25;;;;;;;3.08;2.15;;;;;;;;;;6306855;28;20113;-68
2022/02/27 17:42:27;;;;;;;5.45;2.55;;;;;;;;;;6310951;28;20207;-68
2022/02/27 17:45:29;;;;;;;4.97;2.58;;;;;;;;;;6306056;28;20178;-68
2022/02/27 17:48:31;;;;;;;2.88;2.22;;;;;;;;;;6310430;28;20044;-68
2022/02/27 17:51:34;;;;;;;6.88;2.83;;;;;;;;;;6309986;28;20046;-68
2022/02/27 17:54:36;;;;;;;4.20;2.17;;;;;;;;;;6310479;28;20048;-68
2022/02/27 17:57:37;;;;;;;3.45;2.47;;;;;;;;;;6307887;28;20124;-67
2022/02/27 18:00:39;;;;;;;3.72;2.30;;;;;;;;;;6307599;28;20507;-67
2022/02/27 18:03:40;;;;;;;9.75;2.97;;;;;;;;;;6311156;28;20580;-68
2022/02/27 18:06:43;;;;;;;4.63;2.38;;;;;;;;;;6308757;28;20048;-67
2022/02/27 18:09:45;;;;;;;5.32;2.38;;;;;;;;;;6306228;28;20083;-68
2022/02/27 18:12:46;;;;;;;9.32;3.05;;;;;;;;;;6305132;28;20052;-67
2022/02/27 18:15:48;;;;;;;6.28;2.72;;;;;;;;;;6303984;28;20560;-67